createdAt,value
2018-04-12T00:00:23.645Z,58.30
2018-04-12T00:00:55.311Z,58.40
2018-04-12T00:01:26.918Z,58.40
2018-04-12T00:01:58.557Z,58.70
2018-04-12T00:02:30.193Z,58.80
2018-04-12T00:03:01.811Z,59.40
2018-04-12T00:03:33.426Z,59.70
2018-04-12T00:04:05.073Z,59.60
2018-04-12T00:04:36.711Z,59.40
2018-04-12T00:05:08.335Z,59.20
2018-04-12T00:05:40.024Z,59.00
2018-04-12T00:06:11.660Z,58.90
2018-04-12T00:06:43.306Z,59.00
2018-04-12T00:07:14.963Z,59.20
2018-04-12T00:07:46.605Z,59.50
2018-04-12T00:08:18.274Z,60.10
2018-04-12T00:08:49.921Z,60.30
2018-04-12T00:09:21.546Z,60.40
2018-04-12T00:09:53.177Z,60.20
2018-04-12T00:10:24.817Z,60.30
2018-04-12T00:10:56.468Z,60.30
2018-04-12T00:11:28.101Z,60.50
2018-04-12T00:11:59.731Z,60.60
2018-04-12T00:12:31.418Z,60.70
2018-04-12T00:13:03.066Z,60.60
2018-04-12T00:13:34.691Z,60.80
2018-04-12T00:14:06.307Z,61.00
2018-04-12T00:14:37.956Z,60.90
2018-04-12T00:15:09.592Z,61.60
2018-04-12T00:15:41.236Z,61.40
2018-04-12T00:16:12.864Z,61.60
2018-04-12T00:16:44.504Z,61.50
2018-04-12T00:17:16.136Z,61.40
2018-04-12T00:17:47.774Z,61.90
2018-04-12T00:18:19.415Z,62.20
2018-04-12T00:18:51.024Z,61.90
2018-04-12T00:19:22.654Z,61.60
2018-04-12T00:19:54.309Z,61.60
2018-04-12T00:20:25.936Z,61.40
2018-04-12T00:20:57.572Z,61.50
2018-04-12T00:21:29.237Z,61.90
2018-04-12T00:22:00.877Z,61.90
2018-04-12T00:22:32.489Z,61.90
2018-04-12T00:23:04.194Z,62.20
2018-04-12T00:23:35.778Z,62.10
2018-04-12T00:24:07.396Z,62.10
2018-04-12T00:24:39.030Z,62.20
2018-04-12T00:25:10.658Z,62.20
2018-04-12T00:25:42.322Z,62.10
2018-04-12T00:26:13.974Z,62.20
2018-04-12T00:26:45.607Z,62.20
2018-04-12T00:27:17.220Z,62.60
2018-04-12T00:27:48.881Z,62.90
2018-04-12T00:28:20.532Z,63.40
2018-04-12T00:28:52.142Z,63.50
2018-04-12T00:29:23.769Z,63.80
2018-04-12T00:29:55.414Z,63.80
2018-04-12T00:30:27.094Z,63.80
2018-04-12T00:30:58.720Z,63.60
2018-04-12T00:31:30.356Z,63.40
2018-04-12T00:32:01.987Z,63.30
2018-04-12T00:32:33.675Z,63.00
2018-04-12T00:33:05.322Z,63.50
2018-04-12T00:33:36.964Z,63.40
2018-04-12T00:34:08.609Z,63.10
2018-04-12T00:34:40.254Z,62.90
2018-04-12T00:35:11.882Z,62.80
2018-04-12T00:35:43.528Z,63.10
2018-04-12T00:36:15.163Z,63.50
2018-04-12T00:36:46.806Z,63.60
2018-04-12T00:37:18.428Z,63.70
2018-04-12T00:37:50.062Z,63.50
2018-04-12T00:38:21.699Z,63.50
2018-04-12T00:38:53.378Z,63.40
2018-04-12T00:39:24.993Z,63.50
2018-04-12T00:39:57.840Z,63.70
2018-04-12T00:40:29.484Z,64.40
2018-04-12T00:41:01.147Z,64.30
2018-04-12T00:41:32.789Z,64.20
2018-04-12T00:42:04.410Z,64.30
2018-04-12T00:42:36.052Z,64.30
2018-04-12T00:43:07.677Z,64.70
2018-04-12T00:43:39.320Z,64.90
2018-04-12T00:44:10.932Z,64.70
2018-04-12T00:44:42.554Z,64.90
2018-04-12T00:45:14.200Z,64.80
2018-04-12T00:45:45.845Z,64.60
2018-04-12T00:46:17.486Z,64.60
2018-04-12T00:46:49.128Z,64.70
2018-04-12T00:47:20.768Z,64.90
2018-04-12T00:47:52.412Z,65.40
2018-04-12T00:48:24.040Z,65.60
2018-04-12T00:48:55.658Z,65.80
2018-04-12T00:49:27.349Z,65.50
2018-04-12T00:49:58.961Z,65.10
2018-04-12T00:50:30.605Z,65.50
2018-04-12T00:51:02.214Z,65.70
2018-04-12T00:51:33.839Z,65.80
2018-04-12T00:52:05.458Z,65.70
2018-04-12T00:52:37.093Z,65.80
2018-04-12T00:53:08.741Z,66.00
2018-04-12T00:53:58.969Z,65.90
2018-04-12T00:54:30.630Z,66.00
2018-04-12T00:55:02.296Z,65.80
2018-04-12T00:55:33.944Z,65.70
2018-04-12T00:56:05.620Z,65.60
2018-04-12T00:56:37.253Z,66.10
2018-04-12T00:57:08.872Z,66.10
2018-04-12T00:57:40.497Z,66.20
2018-04-12T00:58:12.154Z,66.10
2018-04-12T00:58:43.810Z,66.10
2018-04-12T00:59:15.448Z,66.00
2018-04-12T00:59:47.079Z,66.30
2018-04-12T01:00:18.722Z,66.40
2018-04-12T01:00:50.371Z,66.40
2018-04-12T01:01:21.994Z,66.40
2018-04-12T01:01:53.619Z,66.50
2018-04-12T01:02:25.275Z,66.40
2018-04-12T01:02:56.928Z,66.30
2018-04-12T01:03:28.565Z,67.30
2018-04-12T01:04:00.192Z,67.50
2018-04-12T01:04:31.843Z,67.40
2018-04-12T01:05:03.493Z,67.50
2018-04-12T01:05:35.109Z,67.90
2018-04-12T01:06:06.760Z,68.10
2018-04-12T01:06:38.393Z,68.70
2018-04-12T01:07:10.038Z,69.00
2018-04-12T01:07:41.661Z,68.80
2018-04-12T01:08:13.299Z,68.50
2018-04-12T01:08:44.959Z,68.70
2018-04-12T01:09:16.588Z,68.50
2018-04-12T01:09:48.208Z,69.10
2018-04-12T01:10:19.860Z,69.10
2018-04-12T01:10:51.502Z,69.10
2018-04-12T01:11:23.148Z,69.00
2018-04-12T01:11:54.857Z,68.80
2018-04-12T01:12:26.516Z,69.10
2018-04-12T01:12:58.156Z,69.10
2018-04-12T01:13:29.784Z,69.60
2018-04-12T01:14:01.470Z,69.30
2018-04-12T01:14:33.112Z,69.00
2018-04-12T01:15:04.724Z,68.90
2018-04-12T01:15:36.380Z,69.70
2018-04-12T01:16:08.062Z,70.80
2018-04-12T01:16:39.702Z,71.00
2018-04-12T01:17:11.334Z,70.90
2018-04-12T01:17:42.965Z,70.90
2018-04-12T01:18:14.606Z,70.60
2018-04-12T01:18:46.285Z,70.20
2018-04-12T01:19:17.941Z,70.10
2018-04-12T01:19:49.588Z,70.00
2018-04-12T01:20:21.245Z,69.90
2018-04-12T01:20:52.908Z,69.70
2018-04-12T01:21:24.523Z,70.30
2018-04-12T01:21:56.151Z,70.80
2018-04-12T01:22:27.777Z,70.90
2018-04-12T01:22:59.434Z,70.90
2018-04-12T01:23:31.078Z,70.90
2018-04-12T01:24:02.731Z,70.90
2018-04-12T01:24:34.381Z,71.00
2018-04-12T01:25:06.004Z,71.10
2018-04-12T01:25:37.739Z,71.30
2018-04-12T01:26:09.423Z,71.40
2018-04-12T01:26:41.056Z,71.20
2018-04-12T01:27:12.674Z,71.40
2018-04-12T01:27:44.295Z,71.40
2018-04-12T01:28:15.938Z,72.00
2018-04-12T01:28:47.573Z,72.00
2018-04-12T01:29:19.236Z,71.90
2018-04-12T01:29:50.861Z,72.40
2018-04-12T01:30:22.522Z,72.60
2018-04-12T01:30:54.153Z,72.30
2018-04-12T01:31:25.797Z,72.10
2018-04-12T01:31:57.445Z,71.90
2018-04-12T01:32:29.017Z,71.70
2018-04-12T01:33:14.207Z,71.60
2018-04-12T01:33:45.851Z,71.90
2018-04-12T01:34:17.520Z,72.10
2018-04-12T01:34:49.162Z,71.80
2018-04-12T01:35:20.830Z,72.00
2018-04-12T01:35:52.468Z,72.00
2018-04-12T01:36:24.110Z,72.10
2018-04-12T01:36:55.744Z,72.00
2018-04-12T01:37:27.367Z,72.10
2018-04-12T01:37:58.980Z,72.20
2018-04-12T01:38:30.605Z,72.00
2018-04-12T01:39:02.304Z,71.70
2018-04-12T01:39:33.951Z,72.20
2018-04-12T01:40:05.574Z,72.10
2018-04-12T01:40:37.241Z,72.00
2018-04-12T01:41:08.863Z,72.30
2018-04-12T01:41:40.479Z,72.90
2018-04-12T01:42:12.100Z,73.60
2018-04-12T01:42:43.732Z,73.90
2018-04-12T01:43:15.371Z,73.80
2018-04-12T01:43:46.991Z,73.50
2018-04-12T01:44:18.659Z,73.20
2018-04-12T01:44:50.289Z,72.90
2018-04-12T01:45:21.925Z,72.70
2018-04-12T01:45:53.571Z,72.60
2018-04-12T01:46:25.175Z,72.60
2018-04-12T01:46:56.817Z,72.70
2018-04-12T01:47:28.463Z,72.60
2018-04-12T01:48:00.113Z,72.70
2018-04-12T01:48:31.744Z,73.20
2018-04-12T01:49:03.364Z,73.50
2018-04-12T01:49:34.979Z,73.60
2018-04-12T01:50:06.599Z,74.30
2018-04-12T01:50:38.200Z,74.10
2018-04-12T01:51:09.811Z,73.80
2018-04-12T01:51:41.720Z,74.10
2018-04-12T01:52:13.346Z,74.60
2018-04-12T01:52:44.999Z,74.50
2018-04-12T01:53:16.667Z,74.10
2018-04-12T01:53:48.297Z,74.00
2018-04-12T01:54:19.937Z,74.10
2018-04-12T01:54:51.592Z,74.50
2018-04-12T01:55:23.221Z,74.50
2018-04-12T01:55:54.869Z,74.70
2018-04-12T01:56:26.518Z,74.60
2018-04-12T01:56:58.143Z,74.50
2018-04-12T01:57:29.775Z,74.30
2018-04-12T01:58:01.421Z,74.50
2018-04-12T01:58:33.079Z,74.60
2018-04-12T01:59:04.706Z,74.80
2018-04-12T01:59:36.367Z,75.20
2018-04-12T02:00:08.040Z,75.10
2018-04-12T02:00:39.682Z,75.00
2018-04-12T02:01:11.369Z,75.10
2018-04-12T02:01:43.030Z,75.60
2018-04-12T02:02:14.669Z,75.10
2018-04-12T02:02:46.294Z,74.90
2018-04-12T02:03:17.932Z,74.60
2018-04-12T02:03:49.570Z,74.30
2018-04-12T02:04:21.233Z,75.00
2018-04-12T02:04:52.860Z,75.30
2018-04-12T02:05:24.498Z,75.20
2018-04-12T02:05:56.142Z,74.90
2018-04-12T02:06:27.791Z,74.70
2018-04-12T02:06:59.414Z,74.60
2018-04-12T02:07:31.071Z,74.30
2018-04-12T02:08:02.697Z,74.50
2018-04-12T02:08:34.329Z,75.10
2018-04-12T02:09:05.956Z,75.60
2018-04-12T02:09:37.617Z,75.50
2018-04-12T02:10:09.247Z,75.80
2018-04-12T02:10:40.896Z,75.50
2018-04-12T02:11:12.557Z,75.50
2018-04-12T02:11:44.206Z,75.60
2018-04-12T02:12:15.850Z,75.40
2018-04-12T02:12:47.502Z,75.40
2018-04-12T02:13:19.153Z,75.30
2018-04-12T02:13:50.804Z,75.80
2018-04-12T02:14:22.447Z,76.10
2018-04-12T02:14:54.097Z,76.10
2018-04-12T02:15:25.747Z,76.00
2018-04-12T02:15:57.510Z,75.60
2018-04-12T02:16:29.142Z,75.60
2018-04-12T02:17:00.833Z,75.40
2018-04-12T02:17:32.510Z,75.90
2018-04-12T02:18:04.396Z,76.00
2018-04-12T02:18:36.202Z,75.90
2018-04-12T02:19:07.890Z,76.00
2018-04-12T02:19:39.631Z,76.10
2018-04-12T02:20:11.272Z,76.50
2018-04-12T02:20:42.882Z,76.30
2018-04-12T02:21:14.502Z,76.10
2018-04-12T02:21:46.126Z,75.90
2018-04-12T02:22:17.796Z,75.90
2018-04-12T02:22:49.452Z,76.30
2018-04-12T02:23:21.076Z,76.20
2018-04-12T02:23:52.703Z,76.20
2018-04-12T02:24:24.326Z,76.10
2018-04-12T02:24:55.955Z,76.10
2018-04-12T02:25:27.586Z,75.90
2018-04-12T02:25:59.216Z,75.80
2018-04-12T02:26:30.892Z,75.60
2018-04-12T02:27:02.554Z,75.90
2018-04-12T02:27:34.195Z,76.00
2018-04-12T02:28:05.829Z,75.90
2018-04-12T02:28:37.462Z,75.80
2018-04-12T02:29:09.083Z,75.60
2018-04-12T02:29:40.735Z,75.40
2018-04-12T02:30:12.411Z,75.40
2018-04-12T02:30:44.049Z,75.20
2018-04-12T02:31:15.702Z,75.20
2018-04-12T02:31:47.339Z,75.00
2018-04-12T02:32:19.010Z,74.70
2018-04-12T02:32:50.635Z,74.60
2018-04-12T02:33:22.263Z,74.30
2018-04-12T02:33:53.891Z,74.00
2018-04-12T02:34:25.550Z,73.50
2018-04-12T02:34:57.244Z,73.40
2018-04-12T02:35:28.841Z,73.10
2018-04-12T02:36:00.496Z,72.70
2018-04-12T02:36:32.125Z,72.60
2018-04-12T02:37:03.755Z,72.20
2018-04-12T02:37:35.425Z,72.00
2018-04-12T02:38:07.095Z,72.10
2018-04-12T02:38:38.749Z,72.30
2018-04-12T02:39:10.367Z,72.30
2018-04-12T02:39:41.997Z,72.20
2018-04-12T02:40:13.621Z,71.90
2018-04-12T02:40:45.236Z,71.70
2018-04-12T02:41:16.912Z,71.30
2018-04-12T02:41:48.543Z,71.40
2018-04-12T02:42:20.152Z,71.40
2018-04-12T02:42:51.784Z,71.40
2018-04-12T02:43:23.394Z,71.20
2018-04-12T02:43:55.021Z,71.40
2018-04-12T02:44:26.654Z,71.20
2018-04-12T02:44:58.295Z,70.90
2018-04-12T02:45:29.939Z,70.60
2018-04-12T02:46:01.569Z,70.70
2018-04-12T02:46:33.246Z,70.40
2018-04-12T02:47:04.890Z,70.10
2018-04-12T02:47:36.520Z,69.90
2018-04-12T02:48:08.156Z,70.00
2018-04-12T02:48:39.792Z,70.10
2018-04-12T02:49:11.415Z,70.10
2018-04-12T02:49:43.036Z,69.80
2018-04-12T02:50:14.672Z,69.60
2018-04-12T02:50:46.320Z,69.50
2018-04-12T02:51:17.944Z,69.50
2018-04-12T02:51:49.588Z,69.60
2018-04-12T02:52:21.208Z,69.50
2018-04-12T02:52:52.818Z,70.50
2018-04-12T02:53:24.439Z,70.70
2018-04-12T02:53:56.088Z,70.60
2018-04-12T02:54:27.720Z,70.40
2018-04-12T02:54:59.348Z,70.40
2018-04-12T02:56:33.822Z,70.30
2018-04-12T02:57:05.446Z,70.30
2018-04-12T02:57:37.091Z,70.20
2018-04-12T02:58:08.708Z,70.40
2018-04-12T02:58:40.344Z,70.30
2018-04-12T02:59:11.976Z,70.10
2018-04-12T02:59:43.598Z,69.90
2018-04-12T03:00:15.237Z,70.10
2018-04-12T03:00:46.877Z,70.30
2018-04-12T03:01:18.524Z,70.40
2018-04-12T03:01:50.196Z,70.50
2018-04-12T03:02:21.823Z,70.40
2018-04-12T03:02:53.471Z,70.10
2018-04-12T03:03:25.148Z,70.20
2018-04-12T03:03:56.820Z,70.40
2018-04-12T03:04:28.458Z,70.20
2018-04-12T03:05:00.109Z,70.10
2018-04-12T03:05:31.776Z,70.50
2018-04-12T03:06:03.488Z,70.50
2018-04-12T03:06:35.108Z,70.70
2018-04-12T03:07:06.740Z,70.70
2018-04-12T03:07:38.372Z,70.70
2018-04-12T03:08:09.986Z,70.80
2018-04-12T03:08:41.609Z,70.90
2018-04-12T03:09:13.236Z,70.70
2018-04-12T03:09:44.897Z,71.00
2018-04-12T03:10:16.524Z,71.30
2018-04-12T03:10:48.164Z,71.20
2018-04-12T03:11:19.782Z,71.10
2018-04-12T03:11:51.421Z,71.10
2018-04-12T03:12:23.102Z,70.70
2018-04-12T03:12:54.704Z,70.70
2018-04-12T03:13:26.336Z,70.70
2018-04-12T03:13:57.978Z,70.70
2018-04-12T03:14:29.609Z,70.80
2018-04-12T03:15:01.239Z,71.00
2018-04-12T03:15:32.864Z,70.80
2018-04-12T03:16:04.540Z,70.70
2018-04-12T03:16:36.199Z,70.60
2018-04-12T03:17:07.830Z,70.10
2018-04-12T03:17:39.512Z,70.10
2018-04-12T03:18:11.142Z,70.30
2018-04-12T03:18:42.784Z,70.40
2018-04-12T03:19:14.476Z,70.40
2018-04-12T03:19:46.104Z,70.50
2018-04-12T03:20:17.724Z,70.80
2018-04-12T03:20:49.363Z,70.70
2018-04-12T03:21:21.026Z,70.70
2018-04-12T03:21:52.657Z,71.10
2018-04-12T03:22:24.285Z,71.10
2018-04-12T03:22:55.915Z,71.70
2018-04-12T03:23:27.532Z,72.30
2018-04-12T03:23:59.149Z,72.10
2018-04-12T03:24:30.830Z,72.30
2018-04-12T03:25:02.450Z,72.30
2018-04-12T03:25:34.068Z,72.30
2018-04-12T03:26:05.712Z,72.30
2018-04-12T03:26:37.338Z,72.60
2018-04-12T03:27:08.957Z,73.00
2018-04-12T03:27:40.580Z,72.90
2018-04-12T03:28:12.199Z,72.70
2018-04-12T03:28:43.840Z,72.80
2018-04-12T03:29:15.458Z,72.70
2018-04-12T03:29:47.150Z,72.70
2018-04-12T03:30:18.784Z,73.10
2018-04-12T03:30:50.417Z,73.90
2018-04-12T03:31:22.052Z,74.10
2018-04-12T03:31:53.708Z,74.20
2018-04-12T03:32:25.333Z,74.40
2018-04-12T03:32:56.952Z,74.60
2018-04-12T03:33:28.594Z,74.20
2018-04-12T03:34:00.241Z,73.90
2018-04-12T03:34:31.861Z,73.70
2018-04-12T03:35:03.473Z,73.50
2018-04-12T03:35:35.110Z,73.30
2018-04-12T03:36:06.751Z,73.10
2018-04-12T03:36:38.417Z,73.50
2018-04-12T03:37:10.050Z,73.80
2018-04-12T03:37:41.675Z,73.70
2018-04-12T03:38:13.306Z,73.50
2018-04-12T03:38:44.923Z,73.30
2018-04-12T03:39:16.549Z,73.40
2018-04-12T03:39:48.169Z,73.30
2018-04-12T03:40:19.779Z,73.30
2018-04-12T03:40:51.413Z,73.40
2018-04-12T03:41:23.051Z,73.40
2018-04-12T03:41:54.668Z,73.70
2018-04-12T03:42:26.293Z,74.30
2018-04-12T03:42:57.963Z,74.50
2018-04-12T03:43:29.595Z,74.40
2018-04-12T03:44:01.231Z,74.30
2018-04-12T03:44:32.866Z,74.40
2018-04-12T03:45:04.496Z,75.00
2018-04-12T03:45:36.107Z,75.00
2018-04-12T03:46:07.734Z,75.20
2018-04-12T03:46:39.365Z,75.30
2018-04-12T03:47:11.000Z,75.70
2018-04-12T03:47:42.628Z,75.80
2018-04-12T03:48:14.231Z,75.90
2018-04-12T03:48:45.923Z,75.60
2018-04-12T03:49:17.499Z,75.80
2018-04-12T03:49:49.123Z,75.90
2018-04-12T03:50:20.809Z,75.70
2018-04-12T03:50:52.373Z,75.60
2018-04-12T03:51:23.971Z,75.60
2018-04-12T03:51:55.607Z,75.60
2018-04-12T03:52:27.245Z,75.80
2018-04-12T03:52:58.881Z,75.80
2018-04-12T03:53:30.483Z,77.00
2018-04-12T03:54:02.123Z,77.20
2018-04-12T03:54:33.757Z,77.00
2018-04-12T03:55:05.418Z,76.70
2018-04-12T03:55:37.035Z,76.60
2018-04-12T03:56:08.627Z,76.50
2018-04-12T03:56:40.331Z,76.20
2018-04-12T03:57:11.961Z,76.40
2018-04-12T03:57:43.566Z,76.60
2018-04-12T03:58:15.190Z,77.10
2018-04-12T03:58:46.817Z,76.90
2018-04-12T03:59:18.467Z,76.90
2018-04-12T03:59:50.123Z,77.20
2018-04-12T04:00:21.785Z,78.00
2018-04-12T04:00:53.393Z,78.60
2018-04-12T04:01:25.025Z,78.80
2018-04-12T04:01:56.654Z,79.10
2018-04-12T04:02:28.309Z,78.90
2018-04-12T04:02:59.961Z,78.50
2018-04-12T04:03:31.591Z,78.40
2018-04-12T04:04:03.219Z,78.30
2018-04-12T04:04:34.823Z,78.70
2018-04-12T04:05:06.462Z,78.50
2018-04-12T04:05:38.085Z,78.70
2018-04-12T04:06:09.697Z,78.70
2018-04-12T04:06:41.331Z,78.50
2018-04-12T04:07:12.977Z,78.70
2018-04-12T04:07:44.607Z,78.40
2018-04-12T04:08:16.271Z,78.10
2018-04-12T04:08:47.897Z,78.30
2018-04-12T04:09:19.519Z,78.20
2018-04-12T04:09:51.143Z,78.70
2018-04-12T04:10:22.761Z,78.60
2018-04-12T04:10:54.393Z,78.50
2018-04-12T04:11:26.015Z,78.40
2018-04-12T04:11:57.645Z,79.20
2018-04-12T04:12:29.325Z,79.30
2018-04-12T04:13:00.977Z,79.30
2018-04-12T04:13:32.604Z,78.80
2018-04-12T04:14:04.308Z,79.30
2018-04-12T04:14:40.965Z,79.60
2018-04-12T04:15:31.070Z,79.50
2018-04-12T04:16:21.135Z,79.20
2018-04-12T04:17:11.277Z,79.10
2018-04-12T04:18:01.315Z,79.80
2018-04-12T04:18:51.503Z,80.20
2018-04-12T04:19:41.735Z,79.60
2018-04-12T04:20:31.901Z,79.60
2018-04-12T04:21:10.240Z,79.90
2018-04-12T04:21:41.892Z,79.80
2018-04-12T04:22:13.525Z,79.40
2018-04-12T04:22:45.143Z,79.90
2018-04-12T04:23:16.763Z,80.00
2018-04-12T04:23:48.370Z,80.10
2018-04-12T04:24:19.994Z,79.90
2018-04-12T04:24:51.606Z,79.60
2018-04-12T04:25:23.244Z,79.50
2018-04-12T04:25:54.883Z,79.50
2018-04-12T04:26:26.529Z,80.40
2018-04-12T04:26:58.150Z,80.80
2018-04-12T04:27:29.766Z,80.80
2018-04-12T04:28:01.395Z,80.60
2018-04-12T04:28:33.019Z,80.50
2018-04-12T04:29:04.622Z,80.60
2018-04-12T04:29:36.251Z,80.80
2018-04-12T04:30:07.868Z,80.80
2018-04-12T04:30:39.489Z,81.10
2018-04-12T04:31:11.120Z,81.30
2018-04-12T04:31:42.760Z,81.70
2018-04-12T04:32:14.380Z,81.60
2018-04-12T04:32:46.014Z,81.10
2018-04-12T04:33:17.642Z,81.50
2018-04-12T04:33:49.264Z,82.00
2018-04-12T04:34:20.895Z,82.10
2018-04-12T04:34:52.529Z,81.80
2018-04-12T04:35:24.173Z,81.30
2018-04-12T04:35:55.803Z,81.60
2018-04-12T04:36:27.432Z,81.40
2018-04-12T04:36:59.074Z,82.20
2018-04-12T04:37:30.719Z,81.90
2018-04-12T04:38:02.356Z,81.60
2018-04-12T04:38:33.986Z,81.10
2018-04-12T04:39:05.630Z,81.00
2018-04-12T04:39:37.270Z,80.60
2018-04-12T04:40:08.940Z,80.30
2018-04-12T04:40:40.563Z,80.20
2018-04-12T04:41:12.192Z,80.00
2018-04-12T04:41:43.846Z,79.60
2018-04-12T04:42:15.484Z,80.00
2018-04-12T04:42:47.141Z,79.80
2018-04-12T04:43:18.772Z,79.70
2018-04-12T04:43:50.376Z,79.20
2018-04-12T04:44:22.003Z,79.20
2018-04-12T04:44:53.664Z,79.30
2018-04-12T04:45:25.334Z,79.00
2018-04-12T04:45:56.957Z,78.50
2018-04-12T04:46:28.596Z,78.50
2018-04-12T04:47:00.238Z,78.80
2018-04-12T04:47:31.873Z,78.40
2018-04-12T04:48:03.530Z,78.70
2018-04-12T04:48:35.174Z,78.50
2018-04-12T04:49:06.800Z,78.60
2018-04-12T04:49:38.423Z,78.50
2018-04-12T04:50:10.064Z,78.00
2018-04-12T04:50:41.691Z,78.00
2018-04-12T04:51:13.321Z,77.60
2018-04-12T04:51:44.947Z,76.70
2018-04-12T04:52:16.592Z,77.20
2018-04-12T04:52:48.216Z,76.90
2018-04-12T04:53:19.851Z,76.80
2018-04-12T04:53:51.455Z,75.60
2018-04-12T04:54:23.089Z,76.20
2018-04-12T04:54:54.752Z,75.70
2018-04-12T04:55:26.339Z,75.50
2018-04-12T04:55:57.949Z,75.20
2018-04-12T04:56:29.680Z,74.30
2018-04-12T04:57:01.317Z,74.10
2018-04-12T04:57:32.967Z,74.80
2018-04-12T04:58:04.647Z,74.80
2018-04-12T04:58:36.267Z,75.70
2018-04-12T04:59:07.893Z,75.90
2018-04-12T04:59:39.519Z,76.30
2018-04-12T05:00:11.141Z,75.60
2018-04-12T05:00:42.829Z,75.80
2018-04-12T05:01:14.450Z,76.30
2018-04-12T05:01:46.089Z,76.30
2018-04-12T05:02:17.737Z,76.30
2018-04-12T05:02:49.402Z,76.30
2018-04-12T05:03:21.055Z,75.80
2018-04-12T05:03:52.678Z,76.70
2018-04-12T05:04:24.304Z,77.60
2018-04-12T05:04:55.946Z,77.60
2018-04-12T05:05:27.601Z,77.90
2018-04-12T05:05:59.277Z,78.00
2018-04-12T05:06:30.933Z,78.60
2018-04-12T05:07:02.584Z,78.40
2018-04-12T05:07:34.259Z,77.70
2018-04-12T05:08:05.900Z,77.80
2018-04-12T05:08:37.553Z,77.80
2018-04-12T05:09:09.222Z,77.70
2018-04-12T05:09:40.850Z,77.20
2018-04-12T05:10:12.523Z,76.90
2018-04-12T05:10:44.180Z,76.10
2018-04-12T05:11:15.807Z,76.50
2018-04-12T05:11:47.421Z,76.20
2018-04-12T05:12:19.060Z,76.90
2018-04-12T05:12:50.677Z,76.60
2018-04-12T05:13:22.318Z,75.70
2018-04-12T05:13:53.949Z,76.40
2018-04-12T05:14:25.571Z,77.40
2018-04-12T05:14:57.193Z,76.70
2018-04-12T05:15:28.856Z,77.50
2018-04-12T05:16:00.457Z,77.60
2018-04-12T05:16:32.100Z,77.20
2018-04-12T05:17:03.735Z,76.70
2018-04-12T05:17:35.355Z,75.80
2018-04-12T05:18:06.973Z,75.40
2018-04-12T05:18:38.625Z,74.90
2018-04-12T05:19:10.258Z,74.10
2018-04-12T05:19:41.885Z,73.40
2018-04-12T05:20:13.525Z,73.60
2018-04-12T05:20:45.193Z,72.40
2018-04-12T05:21:16.800Z,73.10
2018-04-12T05:21:48.443Z,74.00
2018-04-12T05:22:20.079Z,73.80
2018-04-12T05:22:51.729Z,73.20
2018-04-12T05:23:23.373Z,73.00
2018-04-12T05:23:55.021Z,72.10
2018-04-12T05:24:26.661Z,72.60
2018-04-12T05:24:58.297Z,71.90
2018-04-12T05:25:29.919Z,72.70
2018-04-12T05:26:01.554Z,72.70
2018-04-12T05:26:33.197Z,72.60
2018-04-12T05:27:04.865Z,72.00
2018-04-12T05:27:36.443Z,72.10
2018-04-12T05:28:08.072Z,71.80
2018-04-12T05:28:39.691Z,71.10
2018-04-12T05:29:11.354Z,72.10
2018-04-12T05:29:42.989Z,72.40
2018-04-12T05:30:14.655Z,71.50
2018-04-12T05:30:46.268Z,71.00
2018-04-12T05:31:17.906Z,70.50
2018-04-12T05:31:49.515Z,69.30
2018-04-12T05:32:21.165Z,71.00
2018-04-12T05:32:52.789Z,71.30
2018-04-12T05:33:24.435Z,71.10
2018-04-12T05:33:56.110Z,70.50
2018-04-12T05:34:27.775Z,69.10
2018-04-12T05:34:59.430Z,69.80
2018-04-12T05:35:31.035Z,70.30
2018-04-12T05:36:02.661Z,70.00
2018-04-12T05:36:34.279Z,69.50
2018-04-12T05:37:05.940Z,68.70
2018-04-12T05:37:37.571Z,68.60
2018-04-12T05:38:09.185Z,68.40
2018-04-12T05:38:40.815Z,68.40
2018-04-12T05:39:12.447Z,68.40
2018-04-12T05:39:44.105Z,67.60
2018-04-12T05:40:15.752Z,68.70
2018-04-12T05:40:47.375Z,69.00
2018-04-12T05:41:18.995Z,68.70
2018-04-12T05:41:50.626Z,69.20
2018-04-12T05:42:22.261Z,70.10
2018-04-12T05:42:53.872Z,70.80
2018-04-12T05:43:25.513Z,70.70
2018-04-12T05:43:57.141Z,70.30
2018-04-12T05:44:28.753Z,70.40
2018-04-12T05:45:00.387Z,70.00
2018-04-12T05:45:32.025Z,71.00
2018-04-12T05:46:03.651Z,71.40
2018-04-12T05:46:35.261Z,70.80
2018-04-12T05:47:06.875Z,70.70
2018-04-12T05:47:38.520Z,70.00
2018-04-12T05:48:10.165Z,69.80
2018-04-12T05:48:41.780Z,69.70
2018-04-12T05:49:13.431Z,69.20
2018-04-12T05:49:45.057Z,69.70
2018-04-12T05:50:16.721Z,69.80
2018-04-12T05:50:48.477Z,69.50
2018-04-12T05:51:20.121Z,69.30
2018-04-12T05:51:51.794Z,70.40
2018-04-12T05:52:23.446Z,70.50
2018-04-12T05:52:55.133Z,69.80
2018-04-12T05:53:26.735Z,69.70
2018-04-12T05:53:58.366Z,69.40
2018-04-12T05:54:30.007Z,69.40
2018-04-12T05:55:01.627Z,69.10
2018-04-12T05:55:33.253Z,67.90
2018-04-12T05:56:04.897Z,67.30
2018-04-12T05:56:36.550Z,66.90
2018-04-12T05:57:08.175Z,66.50
2018-04-12T05:57:39.782Z,65.10
2018-04-12T05:58:11.428Z,66.10
2018-04-12T05:58:43.082Z,67.10
2018-04-12T05:59:14.706Z,67.70
2018-04-12T05:59:46.310Z,67.60
2018-04-12T06:00:17.940Z,67.50
2018-04-12T06:00:49.604Z,66.50
2018-04-12T06:01:21.234Z,66.30
2018-04-12T06:01:52.858Z,65.50
2018-04-12T06:02:24.509Z,65.80
2018-04-12T06:02:56.140Z,65.90
2018-04-12T06:03:27.766Z,66.60
2018-04-12T06:03:59.402Z,66.40
2018-04-12T06:04:31.060Z,66.60
2018-04-12T06:05:02.709Z,66.10
2018-04-12T06:05:34.380Z,65.70
2018-04-12T06:06:05.986Z,65.60
2018-04-12T06:06:37.625Z,65.60
2018-04-12T06:07:09.262Z,65.30
2018-04-12T06:07:40.884Z,65.70
2018-04-12T06:08:12.517Z,65.00
2018-04-12T06:08:44.139Z,64.40
2018-04-12T06:09:15.771Z,65.20
2018-04-12T06:09:47.419Z,65.80
2018-04-12T06:10:19.031Z,66.60
2018-04-12T06:10:50.641Z,66.50
2018-04-12T06:11:22.279Z,66.20
2018-04-12T06:11:53.897Z,66.10
2018-04-12T06:12:25.529Z,65.40
2018-04-12T06:12:57.161Z,65.20
2018-04-12T06:13:28.813Z,64.10
2018-04-12T06:14:00.474Z,65.10
2018-04-12T06:14:32.087Z,64.30
2018-04-12T06:15:03.733Z,64.00
2018-04-12T06:15:35.382Z,64.20
2018-04-12T06:16:06.993Z,64.20
2018-04-12T06:16:38.657Z,63.50
2018-04-12T06:17:10.272Z,63.90
2018-04-12T06:17:41.929Z,63.30
2018-04-12T06:18:13.551Z,62.00
2018-04-12T06:18:45.178Z,61.80
2018-04-12T06:19:16.834Z,62.60
2018-04-12T06:19:48.526Z,62.10
2018-04-12T06:20:20.161Z,61.60
2018-04-12T06:20:51.822Z,60.90
2018-04-12T06:21:23.506Z,61.20
2018-04-12T06:21:55.091Z,62.30
2018-04-12T06:22:26.743Z,62.60
2018-04-12T06:22:58.365Z,63.20
2018-04-12T06:23:29.998Z,62.70
2018-04-12T06:24:01.639Z,62.60
2018-04-12T06:24:33.251Z,61.80
2018-04-12T06:25:04.887Z,62.80
2018-04-12T06:25:36.563Z,62.20
2018-04-12T06:26:08.174Z,61.70
2018-04-12T06:26:39.842Z,61.70
2018-04-12T06:27:11.482Z,62.60
2018-04-12T06:27:43.114Z,63.30
2018-04-12T06:28:14.746Z,63.50
2018-04-12T06:28:46.377Z,62.90
2018-04-12T06:29:18.004Z,62.90
2018-04-12T06:29:49.628Z,62.60
2018-04-12T06:30:21.252Z,62.00
2018-04-12T06:30:52.889Z,60.90
2018-04-12T06:31:24.552Z,61.10
2018-04-12T06:31:56.164Z,59.90
2018-04-12T06:32:27.815Z,60.60
2018-04-12T06:32:59.449Z,60.50
2018-04-12T06:33:31.055Z,60.00
2018-04-12T06:34:02.707Z,59.80
2018-04-12T06:34:34.341Z,59.80
2018-04-12T06:35:05.964Z,59.80
2018-04-12T06:35:37.591Z,59.70
2018-04-12T06:36:09.225Z,59.30
2018-04-12T06:36:40.875Z,58.70
2018-04-12T06:37:12.513Z,58.30
2018-04-12T06:37:44.151Z,57.20
2018-04-12T06:38:15.786Z,58.00
2018-04-12T06:38:47.414Z,58.40
2018-04-12T06:39:19.043Z,59.10
2018-04-12T06:39:50.725Z,58.60
2018-04-12T06:40:22.319Z,57.10
2018-04-12T06:40:53.930Z,58.20
2018-04-12T06:41:25.555Z,58.00
2018-04-12T06:41:57.193Z,58.30
2018-04-12T06:42:28.830Z,58.80
2018-04-12T06:43:00.468Z,60.00
2018-04-12T06:43:32.091Z,60.00
2018-04-12T06:44:03.767Z,59.60
2018-04-12T06:44:35.401Z,59.70
2018-04-12T06:45:07.050Z,59.30
2018-04-12T06:45:38.693Z,59.80
2018-04-12T06:46:10.310Z,60.60
2018-04-12T06:46:41.981Z,60.70
2018-04-12T06:47:13.594Z,61.30
2018-04-12T06:47:45.209Z,61.20
2018-04-12T06:48:16.864Z,60.80
2018-04-12T06:48:48.484Z,58.40
2018-04-12T06:49:20.110Z,59.50
2018-04-12T06:49:51.767Z,59.70
2018-04-12T06:50:23.436Z,59.10
2018-04-12T06:50:55.127Z,59.30
2018-04-12T06:51:26.763Z,59.90